Low% No Gold - Spelunky HD

Definition: A run ending with the win criteria of both the Low% speedrun and the No-gold speedrun combined.


Rank Player Time Rating Spelunker Platform Video Comment
1   Kinnijup 2:43.007 100.00% Scary 5 bomb Olmec, troll gold
2   Spef 2:50.928 95.37% fast start
3   falafel_raptor 2:51.905 94.82% HeavyBreathing
4   Pibonacci 2:52.516 94.49% Awesome
5   Buddy7heElf 2:59.520 90.80% Sub 3!
6   d_tea 3:00.105 90.51% Olmec fail
7   BlueCadet-3 3:02.547 89.30% [ B ]
8   Carlibraun 3:04.445 88.38% 15s 2-4, 18s Wet Fur & sloppy olmec. Rest was perfect. Happy
9   kobs92 3:05.604 87.83% Yay
10   SAIBOT 3:05.754 87.75% boring run
11   krille71 3:07.318 87.02% Looking better
12   meowmixmix 3:10.969 85.36% 2 pbs in a night :O
13   Baq 3:11.623 85.07% spicy 3-1 and 4-3. bad olmec
14   Kirby703 3:11.704 85.03% idk if I'm satisfied, but it's no longer "slow"
15   Vlad 3:12.305 84.76% funky Olmec
16   Grooomp 3:16.217 83.07% carlibraun OwO
17   chocolatecake5000 3:18.377 82.17% epic style
18   DieDai 3:20.421 81.33% bad olmec & ice
19   ix 3:21.167 81.03% star baker
20   TheNitromeFan 3:21.353 80.96% Fun run.
21   GruntingCrunchy 3:22.189 80.62% Improvised Olmec
22   DaftLunk 3:25.644 79.27% Olmec gold :(
23   Linkruler 3:29.461 77.82% Nice seed, up until lategame
24   Mazerak 3:29.517 77.80% finally bested my oldest pb
25   twiggle 3:31.000 77.25%
26   Polodajaneiro 3:32.024 76.88%
27   ShinGraywords 3:33.763 76.26% 5 hr grind session led to major frustration and minor PB
28   samcv 3:34.803 75.89% could've been sub 3:30 but olmec
29   TicTacFoe 3:40.269 74.00% this game is fun
30   NightHarvester 3:40.447 73.94% Bad Olmec
31   bowmaneer01 3:40.469 73.94% :))
32   Sedoxa 3:41.615 73.55% aaannnnnddd another horrible temple :|
33   BronxTaco 3:43.572 72.91% baby steps
34   Bum 3:45.333 72.34% Have a 3:21 i never uploaded
35   InTol 3:47.097 71.78% Some nasty levels
36   Abob71 3:50.908 70.59% BAAAAAAAAAAAAAAAD Olmec
37   Khold 3:52.365 70.15%
38   JakeTreester 3:52.749 70.04% Good Olmec RNG :O
39   SchnitzelDX 3:55.633 69.18% 1st no gold run in a year
40   AlwaysOlmec 3:55.766 69.14% Nice levels
41   Eszik 4:05.530 66.39% Finally got it :D Could be better but I'm happy with this
42   pojopoopoohead 4:07.105 65.97% Close deaths in 4-1 and 4-2 along with nail biting Olmec
43   HOBT0R 4:07.539 65.85% First time I pulled off the 1-bomb Olmec fight correctly
44   thatmarkguy 4:10.496 65.07% 37th time's the charm. 36 straight temple fails before this
45   Hectique 4:10.878 64.97% sure
46   Stiljoz 4:12.647 64.52% God-tier Mines Seed
47   Suspense 4:16.232 63.62% Soon after my first AJE completion too!
48   bootsthatshoot 4:16.811 63.47% drunken no gold low% hype
49   saturnin55 4:25.648 61.36% bat
50   Alcoer 4:37.000 58.85%
51   HeinzSkitsvelvet 4:39.143 58.40% Running on PC!
52   Berumondo 4:39.933 58.23% 1st completion, but shitty layouts all over the place
53   Yandie 4:42.259 57.75% yeeeeee
54   GreatStriker 4:43.315 57.54% olmec crushed one ruby
55   Dr. Probably 4:52.549 55.72% FINALLY
56   jgunz3 4:56.448 54.99% Low% No Gold (feels good)
57   Pajecka7891 4:57.449 54.80% First pb on new PC!
58   MikeIsMyIke 5:01.082 54.14% 58s dark 2-4 :(
59   Stuoid 5:11.709 52.29% decent
60   Konato_K 5:12.042 52.24% Why do only the slow runs get to live ;-;
61   denis1080 5:20.312 50.89% Wasn't gonna lose 2 LowNG runs in a row on Olmec!
62   JPlay 5:33.701 48.85% Finally
63   MNC mascot 5:42.459 47.60% Olmec bomb toss saved me
64   kvec 5:46.565 47.04% first completion
65   Skylark 5:48.314 46.80% Spectral Bunny
66   Loki Nighton 6:07.511 44.35% Pauper bun is traumatised, must pay for counselling
67   Sawr 6:15.284 43.44% slow and steady!
68   Patdog56 6:33.057 41.47% super slowmec but whatevs \o/
69   jjg27 6:34.201 41.35% scary dark 4-3
70   DiMono 6:36.864 41.07% Woo!
71   courgette 6:37.833 40.97%
72   Kittenwarlock 6:38.287 40.93% I did it
73   slink 6:40.933 40.66% THE NIGHTMARE IS OVER
74   AlphaChannel 6:58.024 38.99%
75   ContraMuffin 7:03.397 38.50%
76   Maplestrip 7:14.551 37.51% Remember saying "never again" after first completing No Gold
77   tuabiht 7:21.713 36.90% Olmec 4 bomb safe strat
78   theZaxanator 7:22.605 36.83% This is shit but I'll come back to it later
79   gjchangmu 8:18.142 32.72% tried for 16 minutes...
80   E5ten 8:41.481 31.26% worst cat tbh
81   Cloiss 9:34.695 28.36% oh hey I completed a run